createdAt,value
2017-10-15T00:01:23.875Z,10.10
2017-10-15T00:06:26.426Z,7.30
2017-10-15T00:11:29.755Z,8.30
2017-10-15T00:16:32.324Z,8.07
2017-10-15T00:21:34.859Z,7.50
2017-10-15T00:26:37.422Z,8.13
2017-10-15T00:31:39.970Z,7.17
2017-10-15T00:36:42.534Z,6.50
2017-10-15T00:41:45.091Z,7.97
2017-10-15T00:46:47.656Z,8.43
2017-10-15T00:51:50.222Z,7.03
2017-10-15T00:56:53.540Z,6.87
2017-10-15T01:01:56.082Z,7.70
2017-10-15T01:06:58.624Z,8.73
2017-10-15T01:12:01.971Z,8.80
2017-10-15T01:17:04.519Z,7.50
2017-10-15T01:22:07.063Z,8.63
2017-10-15T01:27:09.619Z,8.20
2017-10-15T01:32:12.179Z,8.33
2017-10-15T01:37:14.740Z,8.73
2017-10-15T01:42:18.074Z,8.23
2017-10-15T01:47:20.622Z,7.70
2017-10-15T01:52:23.166Z,8.40
2017-10-15T01:57:25.723Z,8.57
2017-10-15T02:02:28.273Z,7.80
2017-10-15T02:07:30.844Z,5.93
2017-10-15T02:12:34.191Z,6.87
2017-10-15T02:17:36.719Z,7.90
2017-10-15T02:22:39.266Z,6.47
2017-10-15T02:27:42.590Z,7.40
2017-10-15T02:32:45.133Z,7.07
2017-10-15T02:37:47.693Z,5.70
2017-10-15T02:42:50.988Z,6.43
2017-10-15T02:47:53.531Z,6.50
2017-10-15T02:52:56.073Z,6.30
2017-10-15T02:57:58.622Z,7.03
2017-10-15T03:03:01.152Z,7.13
2017-10-15T03:08:03.683Z,6.43
2017-10-15T03:13:06.224Z,6.13
2017-10-15T03:18:08.778Z,6.60
2017-10-15T03:23:11.311Z,7.10
2017-10-15T03:28:13.842Z,5.90
2017-10-15T03:33:16.382Z,7.00
2017-10-15T03:38:18.926Z,4.90
2017-10-15T03:43:21.531Z,5.20
2017-10-15T03:48:24.068Z,5.13
2017-10-15T03:53:26.602Z,4.90
2017-10-15T03:58:29.144Z,6.13
2017-10-15T04:03:31.691Z,6.20
2017-10-15T04:08:34.210Z,4.93
2017-10-15T04:13:36.761Z,6.17
2017-10-15T04:18:40.075Z,5.87
2017-10-15T04:23:42.626Z,5.37
2017-10-15T04:28:45.183Z,5.77
2017-10-15T04:33:47.719Z,5.90
2017-10-15T04:38:50.270Z,5.80
2017-10-15T04:43:52.827Z,5.23
2017-10-15T04:48:55.363Z,5.10
2017-10-15T04:53:57.906Z,4.77
2017-10-15T04:59:00.459Z,4.80
2017-10-15T05:04:03.759Z,5.70
2017-10-15T05:09:06.296Z,6.17
2017-10-15T05:14:08.971Z,7.07
2017-10-15T05:19:11.516Z,5.90
2017-10-15T05:24:14.064Z,4.03
2017-10-15T05:29:16.598Z,4.10
2017-10-15T05:34:19.292Z,4.27
2017-10-15T05:39:21.830Z,4.37
2017-10-15T05:44:24.382Z,3.40
2017-10-15T05:49:26.933Z,3.37
2017-10-15T05:54:29.468Z,3.70
2017-10-15T05:59:32.050Z,3.40
2017-10-15T06:04:34.591Z,3.53
2017-10-15T06:09:37.223Z,3.97
2017-10-15T06:14:39.772Z,3.60
2017-10-15T06:19:43.089Z,3.80
2017-10-15T06:24:46.405Z,3.70
2017-10-15T06:29:48.944Z,3.67
2017-10-15T06:34:51.467Z,3.90
2017-10-15T06:39:54.033Z,4.07
2017-10-15T06:44:56.571Z,4.50
2017-10-15T06:49:59.118Z,4.63
2017-10-15T06:55:01.654Z,4.70
2017-10-15T07:00:04.213Z,4.50
2017-10-15T07:05:06.758Z,4.33
2017-10-15T07:10:09.339Z,5.37
2017-10-15T07:15:11.892Z,5.67
2017-10-15T07:20:14.451Z,5.20
2017-10-15T07:25:17.020Z,5.67
2017-10-15T07:30:19.597Z,5.57
2017-10-15T07:35:22.162Z,5.80
2017-10-15T07:40:24.752Z,5.80
2017-10-15T07:45:27.322Z,6.77
2017-10-15T07:50:29.897Z,6.60
2017-10-15T07:55:33.211Z,6.00
2017-10-15T08:00:35.779Z,7.17
2017-10-15T08:05:38.347Z,6.50
2017-10-15T08:10:40.878Z,6.50
2017-10-15T08:15:43.418Z,7.60
2017-10-15T08:20:45.982Z,7.60
2017-10-15T08:25:49.309Z,7.63
2017-10-15T08:30:51.865Z,8.10
2017-10-15T08:35:54.428Z,7.10
2017-10-15T08:40:57.031Z,7.20
2017-10-15T08:45:59.593Z,8.13
2017-10-15T08:51:02.141Z,7.40
2017-10-15T08:56:04.710Z,8.77
2017-10-15T09:01:07.267Z,10.07
2017-10-15T09:06:09.895Z,10.03
2017-10-15T09:11:13.977Z,8.50
2017-10-15T09:16:16.571Z,12.70
2017-10-15T09:21:19.125Z,14.10
2017-10-15T09:26:21.760Z,13.77
2017-10-15T09:31:24.319Z,14.90
2017-10-15T09:36:26.870Z,13.10
2017-10-15T09:41:29.426Z,13.50
2017-10-15T09:46:32.739Z,14.67
2017-10-15T09:51:35.294Z,12.40
2017-10-15T09:56:37.848Z,15.63
2017-10-15T10:01:40.412Z,17.00
2017-10-15T10:06:42.986Z,18.80
2017-10-15T10:11:45.551Z,17.00
2017-10-15T10:16:48.136Z,16.50
2017-10-15T10:21:50.712Z,17.77
2017-10-15T10:26:53.266Z,16.63
2017-10-15T10:31:55.829Z,15.10
2017-10-15T10:36:58.409Z,15.13
2017-10-15T10:42:00.972Z,17.13
2017-10-15T10:47:03.527Z,15.50
2017-10-15T10:52:06.088Z,15.40
2017-10-15T10:57:08.634Z,17.37
2017-10-15T11:02:11.238Z,17.37
2017-10-15T11:07:13.803Z,16.37
2017-10-15T11:12:16.399Z,16.60
2017-10-15T11:17:18.955Z,15.23
2017-10-15T11:22:21.620Z,14.30
2017-10-15T11:27:24.169Z,15.40
2017-10-15T11:32:26.741Z,13.73
2017-10-15T11:37:29.309Z,14.47
2017-10-15T11:42:31.857Z,11.60
2017-10-15T11:47:34.845Z,11.10
2017-10-15T11:52:37.427Z,11.50
2017-10-15T11:57:41.642Z,10.43
2017-10-15T12:02:44.189Z,9.37
2017-10-15T12:07:46.735Z,9.77
2017-10-15T12:12:49.352Z,11.40
2017-10-15T12:17:51.901Z,9.53
2017-10-15T12:22:54.538Z,9.40
2017-10-15T12:27:57.104Z,7.70
2017-10-15T12:32:59.681Z,8.97
2017-10-15T12:38:02.236Z,8.23
2017-10-15T12:43:04.799Z,8.43
2017-10-15T12:48:07.348Z,6.97
2017-10-15T12:53:14.820Z,7.43
2017-10-15T12:58:17.368Z,7.77
2017-10-15T13:03:19.935Z,7.97
2017-10-15T13:08:22.488Z,7.83
2017-10-15T13:13:25.055Z,7.67
2017-10-15T13:18:27.611Z,7.90
2017-10-15T13:23:30.173Z,7.10
2017-10-15T13:28:32.716Z,7.10
2017-10-15T13:33:35.273Z,6.80
2017-10-15T13:38:37.811Z,5.13
2017-10-15T13:43:40.357Z,5.30
2017-10-15T13:48:42.914Z,5.70
2017-10-15T13:53:45.467Z,5.07
2017-10-15T13:58:48.045Z,4.90
2017-10-15T14:03:50.593Z,4.73
2017-10-15T14:08:53.170Z,3.23
2017-10-15T14:13:55.715Z,4.93
2017-10-15T14:18:58.268Z,4.43
2017-10-15T14:24:00.826Z,3.87
2017-10-15T14:29:03.383Z,4.03
2017-10-15T14:34:05.939Z,3.80
2017-10-15T14:39:08.497Z,3.37
2017-10-15T14:44:11.073Z,4.07
2017-10-15T14:49:13.621Z,3.77
2017-10-15T14:54:16.192Z,3.63
2017-10-15T14:59:18.762Z,3.80
2017-10-15T15:04:21.326Z,4.27
2017-10-15T15:09:23.876Z,3.50
2017-10-15T15:14:26.428Z,3.90
2017-10-15T15:19:29.048Z,2.97
2017-10-15T15:24:31.635Z,3.40
2017-10-15T15:29:34.241Z,3.30
2017-10-15T15:34:36.796Z,3.40
2017-10-15T15:39:39.344Z,4.57
2017-10-15T15:44:41.983Z,3.27
2017-10-15T15:49:44.540Z,4.07
2017-10-15T15:54:47.099Z,6.57
2017-10-15T15:59:49.659Z,5.30
2017-10-15T16:04:52.243Z,3.53
2017-10-15T16:09:54.835Z,2.97
2017-10-15T16:14:58.132Z,3.37
2017-10-15T16:20:00.763Z,2.83
2017-10-15T16:25:03.327Z,2.73
2017-10-15T16:30:06.643Z,3.10
2017-10-15T16:35:09.210Z,2.80
2017-10-15T16:40:11.755Z,4.17
2017-10-15T16:45:14.307Z,8.50
2017-10-15T16:50:16.903Z,4.23
2017-10-15T16:55:19.475Z,4.60
2017-10-15T17:00:22.035Z,4.70
2017-10-15T17:05:24.637Z,3.80
2017-10-15T17:10:27.192Z,3.87
2017-10-15T17:15:29.761Z,3.57
2017-10-15T17:20:32.299Z,3.50
2017-10-15T17:25:34.874Z,3.67
2017-10-15T17:30:37.450Z,5.57
2017-10-15T17:35:40.764Z,13.00
2017-10-15T17:40:43.341Z,11.57
2017-10-15T17:45:46.671Z,10.43
2017-10-15T17:50:49.978Z,16.40
2017-10-15T17:55:52.556Z,7.40
2017-10-15T18:00:55.095Z,7.97
2017-10-15T18:05:57.646Z,5.10
2017-10-15T18:11:00.204Z,4.47
2017-10-15T18:16:02.768Z,5.10
2017-10-15T18:21:05.319Z,5.10
2017-10-15T18:26:07.865Z,9.30
2017-10-15T18:31:10.799Z,7.00
2017-10-15T18:36:13.326Z,4.03
2017-10-15T18:41:15.889Z,5.03
2017-10-15T18:46:18.480Z,4.67
2017-10-15T18:51:21.799Z,3.87
2017-10-15T18:56:24.384Z,4.17
2017-10-15T19:01:27.141Z,4.47
2017-10-15T19:06:29.714Z,3.93
2017-10-15T19:11:32.390Z,4.03
2017-10-15T19:16:35.745Z,4.77
2017-10-15T19:21:38.361Z,5.13
2017-10-15T19:26:40.941Z,5.17
2017-10-15T19:31:43.483Z,5.17
2017-10-15T19:36:46.123Z,5.33
2017-10-15T19:41:48.771Z,5.10
2017-10-15T19:46:51.326Z,5.33
2017-10-15T19:51:53.937Z,4.63
2017-10-15T19:56:56.486Z,4.83
2017-10-15T20:01:59.044Z,5.30
2017-10-15T20:07:01.602Z,5.50
2017-10-15T20:12:04.123Z,5.13
2017-10-15T20:17:06.675Z,6.10
2017-10-15T20:22:10.010Z,6.00
2017-10-15T20:27:12.576Z,5.63
2017-10-15T20:32:15.128Z,5.27
2017-10-15T20:37:17.670Z,5.30
2017-10-15T20:42:20.235Z,5.33
2017-10-15T20:47:22.812Z,4.93
2017-10-15T20:52:26.135Z,4.30
2017-10-15T20:57:28.842Z,4.37
2017-10-15T21:02:31.408Z,5.73
2017-10-15T21:07:33.963Z,5.60
2017-10-15T21:12:36.522Z,6.30
2017-10-15T21:17:39.856Z,8.00
2017-10-15T21:22:42.405Z,7.50
2017-10-15T21:27:44.969Z,8.00
2017-10-15T21:32:47.531Z,5.50
2017-10-15T21:37:50.115Z,6.27
2017-10-15T21:42:52.663Z,5.60
2017-10-15T21:47:55.209Z,6.10
2017-10-15T21:52:57.773Z,4.90
2017-10-15T21:58:00.340Z,5.20
2017-10-15T22:03:02.875Z,4.37
2017-10-15T22:08:05.427Z,4.97
2017-10-15T22:13:08.744Z,6.23
2017-10-15T22:18:16.886Z,5.40
2017-10-15T22:23:19.462Z,5.83
2017-10-15T22:28:22.019Z,6.07
2017-10-15T22:33:24.563Z,6.90
2017-10-15T22:38:27.963Z,5.57
2017-10-15T22:43:30.531Z,5.67
2017-10-15T22:48:33.086Z,7.20
2017-10-15T22:53:36.410Z,7.43
2017-10-15T22:58:39.720Z,7.80
2017-10-15T23:03:42.299Z,8.67
2017-10-15T23:08:44.843Z,6.53
2017-10-15T23:13:47.407Z,7.00
2017-10-15T23:18:49.965Z,6.07
2017-10-15T23:23:52.506Z,6.07
2017-10-15T23:28:55.823Z,6.40
2017-10-15T23:33:58.379Z,8.10
2017-10-15T23:39:00.940Z,7.10
2017-10-15T23:44:03.483Z,7.77
2017-10-15T23:49:06.031Z,6.80
2017-10-15T23:54:08.567Z,7.20
2017-10-15T23:59:11.113Z,7.23
